Time;durP1;ratioP1;P1;durP2;ratioP2;P2;SDS_P1;SDS_P2;PMS_P1;PMS_P2;Temp;Humidity;BMP_temperature;BMP_pressure;BME280_temperature;BME280_humidity;BME280_pressure;Samples;Min_cycle;Max_cycle;Signal;HPM_P1;HPM_P2
2021/05/06 00:09:14;;;;;;;0.50;0.50;;;4.10;99.90;;;;;;5057132;28;20257;-78
2021/05/06 00:14:36;;;;;;;0.60;0.60;;;4.10;99.90;;;;;;5046454;28;20569;-78
2021/05/06 00:31:14;;;;;;;0.60;0.60;;;4.10;99.90;;;;;;5049314;28;20678;-78
2021/05/06 00:33:40;;;;;;;0.60;0.60;;;4.10;99.90;;;;;;5049076;28;20253;-79
2021/05/06 00:36:10;;;;;;;0.60;0.60;;;4.10;99.90;;;;;;5049481;28;20208;-79
2021/05/06 00:38:40;;;;;;;0.60;0.60;;;4.00;99.90;;;;;;5049397;28;20290;-79
2021/05/06 00:41:17;;;;;;;0.60;0.60;;;4.10;99.90;;;;;;5049272;28;20246;-79
2021/05/06 00:44:03;;;;;;;0.60;0.60;;;4.00;99.90;;;;;;5049395;28;20250;-79
2021/05/06 00:46:47;;;;;;;0.60;0.60;;;4.10;99.90;;;;;;5049005;28;20725;-79
2021/05/06 00:54:55;;;;;;;0.60;0.60;;;4.00;99.90;;;;;;5049172;28;20698;-79
2021/05/06 00:57:29;;;;;;;0.50;0.50;;;4.00;99.90;;;;;;5049324;28;20204;-78
2021/05/06 01:02:56;;;;;;;0.60;0.60;;;3.90;99.90;;;;;;5048563;28;20203;-78
2021/05/06 01:05:27;;;;;;;0.60;0.60;;;3.80;99.90;;;;;;5048675;28;20204;-79
2021/05/06 01:08:07;;;;;;;0.50;0.50;;;3.80;99.90;;;;;;5048553;28;20223;-79
2021/05/06 01:10:50;;;;;;;0.57;0.57;;;3.80;99.90;;;;;;5049036;28;20251;-78
2021/05/06 01:13:21;;;;;;;0.50;0.50;;;3.90;99.90;;;;;;5048753;28;20208;-79
2021/05/06 01:15:47;;;;;;;0.57;0.57;;;3.90;99.90;;;;;;5048627;28;20201;-79
2021/05/06 01:18:13;;;;;;;0.60;0.60;;;3.80;99.90;;;;;;5049109;28;20568;-79
2021/05/06 01:20:44;;;;;;;0.60;0.60;;;3.80;99.90;;;;;;5048858;28;20204;-79
2021/05/06 01:23:10;;;;;;;0.50;0.50;;;3.80;99.90;;;;;;5048806;28;20224;-79
2021/05/06 01:25:36;;;;;;;0.60;0.60;;;3.80;99.90;;;;;;5048584;28;20216;-79
2021/05/06 01:28:06;;;;;;;0.60;0.60;;;3.80;99.90;;;;;;5051997;28;20224;-79
2021/05/06 01:30:36;;;;;;;0.55;0.55;;;3.80;99.90;;;;;;5052895;28;20208;-79
2021/05/06 01:33:07;;;;;;;0.60;0.60;;;3.90;99.90;;;;;;5052304;28;20663;-78
2021/05/06 01:35:37;;;;;;;0.60;0.60;;;3.70;99.90;;;;;;5052437;28;20441;-78
2021/05/06 01:38:19;;;;;;;0.60;0.60;;;3.70;99.90;;;;;;5052233;28;20211;-79
2021/05/06 01:41:01;;;;;;;0.60;0.60;;;3.70;99.90;;;;;;5052412;28;20650;-78
2021/05/06 01:43:37;;;;;;;0.60;0.60;;;3.50;99.90;;;;;;5052166;28;20277;-79
2021/05/06 01:46:23;;;;;;;0.57;0.57;;;3.60;99.90;;;;;;5052324;28;20211;-79
2021/05/06 01:59:56;;;;;;;0.60;0.60;;;3.80;99.90;;;;;;5051878;28;20246;-79
2021/05/06 02:02:22;;;;;;;0.57;0.57;;;3.70;99.90;;;;;;5051808;28;20204;-79
2021/05/06 02:04:48;;;;;;;0.60;0.60;;;3.80;99.90;;;;;;5052112;28;20208;-78
2021/05/06 02:07:14;;;;;;;0.60;0.60;;;3.80;99.90;;;;;;5051720;28;20232;-79
2021/05/06 02:09:43;;;;;;;0.55;0.55;;;3.70;99.90;;;;;;5051768;28;20297;-79
2021/05/06 02:12:13;;;;;;;0.60;0.60;;;3.70;99.90;;;;;;5051568;28;20299;-79
2021/05/06 02:14:40;;;;;;;0.60;0.60;;;3.70;99.90;;;;;;5051623;28;20204;-79
2021/05/06 02:17:07;;;;;;;0.60;0.60;;;3.70;99.90;;;;;;5051857;28;20196;-79
2021/05/06 02:19:37;;;;;;;0.60;0.60;;;3.60;99.90;;;;;;5051402;28;20216;-79
2021/05/06 02:22:05;;;;;;;0.60;0.60;;;3.70;99.90;;;;;;5051307;28;20247;-79
2021/05/06 02:24:32;;;;;;;0.60;0.60;;;3.70;99.90;;;;;;5051352;28;20242;-79
2021/05/06 02:26:59;;;;;;;0.60;0.60;;;3.70;99.90;;;;;;5051956;28;20590;-79
2021/05/06 02:29:25;;;;;;;0.60;0.60;;;3.70;99.90;;;;;;5051725;28;20204;-79
2021/05/06 02:31:54;;;;;;;0.60;0.60;;;3.60;99.90;;;;;;5051104;28;20212;-79
2021/05/06 02:34:20;;;;;;;0.60;0.60;;;3.60;99.90;;;;;;5051192;28;20671;-78
2021/05/06 02:36:46;;;;;;;0.60;0.60;;;3.60;99.90;;;;;;5051374;28;20204;-78
2021/05/06 02:39:12;;;;;;;0.60;0.60;;;3.70;99.90;;;;;;5051019;28;20254;-78
2021/05/06 02:41:38;;;;;;;0.60;0.60;;;3.60;99.90;;;;;;5051092;28;20211;-79
2021/05/06 02:44:06;;;;;;;0.50;0.50;;;3.70;99.90;;;;;;5051260;28;20679;-79
2021/05/06 02:46:32;;;;;;;0.60;0.60;;;3.60;99.90;;;;;;5051308;28;20688;-79
2021/05/06 02:48:58;;;;;;;0.60;0.60;;;3.60;99.90;;;;;;5050941;28;20211;-79
2021/05/06 02:51:29;;;;;;;0.60;0.60;;;3.50;99.90;;;;;;5050975;28;20711;-79
2021/05/06 02:53:55;;;;;;;0.60;0.60;;;3.50;99.90;;;;;;5050872;28;20208;-78
2021/05/06 02:56:28;;;;;;;0.57;0.57;;;3.50;99.90;;;;;;5051375;28;20200;-79
2021/05/06 02:59:10;;;;;;;0.60;0.60;;;3.50;99.90;;;;;;5051372;28;20685;-78
2021/05/06 03:04:21;;;;;;;0.50;0.50;;;3.80;99.90;;;;;;5051023;28;20200;-79
2021/05/06 03:06:50;;;;;;;0.60;0.60;;;3.40;99.90;;;;;;5050764;28;20728;-78
2021/05/06 03:09:37;;;;;;;0.60;0.60;;;3.40;99.90;;;;;;5050465;28;20459;-78
2021/05/06 03:12:17;;;;;;;0.60;0.60;;;3.40;99.90;;;;;;5050500;28;20595;-78
2021/05/06 03:14:56;;;;;;;0.60;0.60;;;3.40;99.90;;;;;;5050912;28;20200;-78
2021/05/06 03:22:54;;;;;;;0.60;0.60;;;3.40;99.90;;;;;;5050297;28;20675;-79
2021/05/06 03:25:22;;;;;;;0.60;0.60;;;3.40;99.90;;;;;;5050061;28;20215;-78
2021/05/06 03:27:54;;;;;;;0.60;0.60;;;3.40;99.90;;;;;;5050208;28;20859;-79
2021/05/06 03:30:36;;;;;;;0.60;0.60;;;3.40;99.90;;;;;;5050450;28;20212;-79
2021/05/06 03:36:14;;;;;;;0.60;0.60;;;3.40;99.90;;;;;;5050100;28;20204;-78
2021/05/06 03:41:44;;;;;;;0.60;0.60;;;3.40;99.90;;;;;;5050366;28;20199;-79
2021/05/06 04:17:36;;;;;;;0.50;0.50;;;3.30;99.90;;;;;;5049886;28;20704;-79
2021/05/06 04:25:43;;;;;;;0.60;0.60;;;3.20;99.90;;;;;;5049193;28;20208;-79
2021/05/06 04:28:39;;;;;;;0.60;0.60;;;3.30;99.90;;;;;;5049198;28;20223;-79
2021/05/06 04:31:17;;;;;;;0.50;0.50;;;3.40;99.90;;;;;;5049291;28;20629;-80
2021/05/06 04:36:36;;;;;;;0.60;0.60;;;3.50;99.90;;;;;;5049550;28;20195;-79
2021/05/06 04:39:05;;;;;;;0.50;0.50;;;3.50;99.90;;;;;;5049183;28;20575;-79
2021/05/06 04:41:41;;;;;;;0.60;0.60;;;3.60;99.90;;;;;;5049706;28;20204;-79
2021/05/06 04:44:58;;;;;;;0.60;0.60;;;3.80;99.90;;;;;;5049036;28;20204;-79
2021/05/06 04:55:28;;;;;;;0.60;0.60;;;4.20;99.90;;;;;;5049330;28;20262;-79
2021/05/06 04:58:04;;;;;;;0.60;0.60;;;4.30;99.90;;;;;;5049136;28;20201;-79
2021/05/06 05:03:35;;;;;;;0.60;0.60;;;4.60;99.90;;;;;;5052939;28;20716;-79
2021/05/06 05:06:01;;;;;;;0.60;0.60;;;4.70;99.90;;;;;;5052842;28;20238;-78
2021/05/06 05:08:32;;;;;;;0.60;0.60;;;4.90;99.90;;;;;;5053194;28;20634;-79
2021/05/06 05:11:19;;;;;;;0.60;0.60;;;5.10;99.90;;;;;;5053349;28;20254;-79
2021/05/06 05:14:16;;;;;;;0.60;0.60;;;5.20;99.90;;;;;;5052997;28;20295;-79
2021/05/06 05:19:38;;;;;;;0.60;0.60;;;5.00;99.90;;;;;;5052878;28;20269;-79
2021/05/06 05:24:55;;;;;;;0.60;0.60;;;5.10;99.90;;;;;;5052518;28;20246;-80
2021/05/06 05:27:23;;;;;;;0.60;0.60;;;5.10;99.90;;;;;;5052225;28;20254;-80
2021/05/06 05:29:50;;;;;;;0.60;0.60;;;5.10;99.90;;;;;;5052658;28;20307;-81
2021/05/06 05:32:17;;;;;;;0.60;0.60;;;5.20;99.90;;;;;;5052326;28;20212;-81
2021/05/06 05:34:44;;;;;;;0.60;0.60;;;5.30;99.90;;;;;;5052808;28;20200;-80
2021/05/06 05:37:16;;;;;;;0.55;0.55;;;5.30;99.90;;;;;;5052108;28;20204;-79
2021/05/06 05:39:53;;;;;;;0.52;0.52;;;5.30;99.90;;;;;;5052604;28;20204;-79
2021/05/06 05:42:26;;;;;;;0.60;0.60;;;5.40;99.90;;;;;;5039297;28;21047;-79
2021/05/06 05:55:52;;;;;;;0.60;0.60;;;5.70;99.90;;;;;;5063497;28;20635;-83
2021/05/06 05:58:18;;;;;;;0.60;0.60;;;5.80;99.90;;;;;;5061808;28;20204;-81
2021/05/06 06:00:45;;;;;;;0.60;0.60;;;5.90;99.90;;;;;;5071579;28;20207;-81
2021/05/06 06:03:12;;;;;;;0.57;0.57;;;5.90;99.90;;;;;;5071501;28;20218;-80
2021/05/06 06:05:41;;;;;;;0.60;0.60;;;5.90;99.90;;;;;;5060841;28;20235;-83
2021/05/06 06:08:08;;;;;;;0.60;0.60;;;6.00;99.90;;;;;;5073677;28;20224;-81
2021/05/06 06:10:34;;;;;;;0.60;0.60;;;6.00;99.90;;;;;;5071909;28;20495;-79
2021/05/06 06:13:00;;;;;;;0.60;0.60;;;6.00;99.90;;;;;;5063519;28;20565;-79
2021/05/06 06:15:40;;;;;;;0.60;0.60;;;6.10;99.90;;;;;;5069448;28;20222;-80
2021/05/06 06:18:12;;;;;;;0.60;0.60;;;7.00;99.90;;;;;;5067533;28;20289;-80
2021/05/06 06:20:41;;;;;;;0.60;0.60;;;6.20;99.90;;;;;;5071226;28;20208;-80
2021/05/06 06:23:07;;;;;;;0.55;0.55;;;6.30;99.90;;;;;;5070921;28;20200;-81
2021/05/06 06:25:33;;;;;;;0.60;0.60;;;6.30;99.90;;;;;;5070767;28;20219;-81
2021/05/06 06:27:59;;;;;;;0.60;0.60;;;6.10;99.90;;;;;;5070271;28;20226;-82
2021/05/06 06:30:27;;;;;;;0.60;0.60;;;6.30;99.90;;;;;;5070513;28;20228;-80
2021/05/06 06:32:53;;;;;;;0.60;0.60;;;6.20;99.90;;;;;;5070916;28;20231;-81
2021/05/06 06:35:20;;;;;;;0.60;0.60;;;6.30;99.90;;;;;;5070331;28;20666;-81
2021/05/06 06:37:46;;;;;;;0.60;0.60;;;6.20;99.90;;;;;;5070682;28;20603;-80
2021/05/06 06:40:14;;;;;;;0.50;0.50;;;6.10;99.90;;;;;;5070768;28;20655;-80
2021/05/06 06:42:40;;;;;;;0.50;0.50;;;6.20;99.90;;;;;;5060745;28;20243;-80
2021/05/06 06:45:07;;;;;;;0.60;0.60;;;6.20;99.90;;;;;;5065654;28;20204;-78
2021/05/06 06:47:33;;;;;;;0.60;0.60;;;6.40;99.90;;;;;;5070776;28;20227;-79
2021/05/06 06:49:59;;;;;;;0.60;0.60;;;6.40;99.90;;;;;;5069103;28;20196;-79
2021/05/06 06:52:26;;;;;;;0.60;0.60;;;6.50;99.90;;;;;;5068915;28;20631;-78
2021/05/06 06:54:53;;;;;;;0.60;0.60;;;6.50;99.90;;;;;;5071341;28;20207;-78
2021/05/06 06:57:19;;;;;;;0.60;0.60;;;6.50;99.90;;;;;;5069425;28;20200;-77
2021/05/06 06:59:45;;;;;;;0.60;0.60;;;6.30;99.90;;;;;;5051912;28;20207;-78
2021/05/06 07:02:13;;;;;;;0.55;0.55;;;6.30;99.90;;;;;;5069808;28;20204;-78
2021/05/06 07:04:39;;;;;;;0.60;0.60;;;6.30;99.90;;;;;;5070104;28;20239;-78
2021/05/06 07:07:05;;;;;;;0.60;0.60;;;7.30;99.90;;;;;;5069841;28;20231;-78
2021/05/06 07:09:32;;;;;;;0.60;0.60;;;6.50;99.90;;;;;;5069790;28;20204;-78
2021/05/06 07:11:58;;;;;;;0.60;0.60;;;6.50;99.90;;;;;;5069205;28;20208;-78
2021/05/06 07:14:24;;;;;;;0.60;0.60;;;6.50;99.90;;;;;;5069787;28;20204;-78
2021/05/06 07:16:50;;;;;;;0.60;0.60;;;6.50;99.90;;;;;;5069886;28;20204;-78
2021/05/06 07:19:16;;;;;;;0.60;0.60;;;6.50;99.90;;;;;;5068957;28;20261;-78
2021/05/06 07:21:42;;;;;;;0.60;0.60;;;6.30;99.90;;;;;;5069948;28;20204;-77
2021/05/06 07:24:09;;;;;;;0.60;0.60;;;6.50;99.90;;;;;;5068543;28;20293;-77
2021/05/06 07:26:38;;;;;;;0.60;0.60;;;6.40;99.90;;;;;;5069386;28;20238;-77
2021/05/06 07:29:05;;;;;;;0.60;0.60;;;6.60;99.90;;;;;;5068920;28;20724;-78
2021/05/06 07:31:31;;;;;;;0.60;0.60;;;6.50;99.90;;;;;;5069224;28;20222;-78
2021/05/06 07:33:57;;;;;;;0.60;0.60;;;6.70;99.90;;;;;;5069418;28;20231;-78
2021/05/06 07:36:23;;;;;;;0.60;0.60;;;6.90;99.90;;;;;;5068934;28;20208;-78
2021/05/06 07:38:49;;;;;;;0.60;0.60;;;7.00;99.90;;;;;;5069721;28;20227;-78
2021/05/06 07:41:16;;;;;;;0.60;0.60;;;6.90;99.90;;;;;;5068893;28;20684;-78
2021/05/06 07:43:43;;;;;;;0.60;0.60;;;7.00;99.90;;;;;;5068092;28;20282;-78
2021/05/06 07:46:10;;;;;;;0.60;0.60;;;7.00;99.90;;;;;;5069372;28;20701;-77
2021/05/06 07:48:36;;;;;;;0.60;0.60;;;7.10;99.90;;;;;;5069373;28;20231;-77
2021/05/06 07:51:02;;;;;;;0.60;0.60;;;7.10;99.90;;;;;;5067877;28;20685;-78
2021/05/06 07:53:37;;;;;;;0.60;0.60;;;7.10;99.90;;;;;;5068666;28;20204;-78
2021/05/06 07:56:03;;;;;;;0.60;0.60;;;7.10;99.90;;;;;;5067301;28;20203;-78
2021/05/06 07:58:29;;;;;;;0.60;0.60;;;6.90;99.90;;;;;;5067961;28;20203;-78
2021/05/06 08:00:57;;;;;;;0.60;0.60;;;6.80;99.90;;;;;;5069449;28;20203;-78
2021/05/06 08:03:23;;;;;;;0.60;0.60;;;6.90;99.90;;;;;;5068468;28;20207;-78
2021/05/06 08:05:53;;;;;;;0.60;0.60;;;6.90;99.90;;;;;;5056786;28;20254;-78
2021/05/06 08:08:19;;;;;;;0.60;0.60;;;6.90;99.90;;;;;;5048055;28;20224;-78
2021/05/06 08:10:45;;;;;;;0.60;0.60;;;6.90;99.90;;;;;;5049412;28;20612;-78
2021/05/06 08:13:11;;;;;;;0.60;0.60;;;7.10;99.90;;;;;;5047908;28;20208;-78
2021/05/06 08:15:38;;;;;;;0.60;0.60;;;7.10;99.90;;;;;;5050065;28;20321;-77
2021/05/06 08:18:05;;;;;;;0.60;0.60;;;7.00;99.90;;;;;;5068579;28;20199;-77
2021/05/06 08:20:31;;;;;;;0.50;0.50;;;7.00;99.90;;;;;;5069294;28;20208;-78
2021/05/06 08:22:57;;;;;;;0.50;0.50;;;7.10;99.90;;;;;;5068141;28;20661;-78
2021/05/06 08:25:24;;;;;;;0.60;0.60;;;7.20;99.90;;;;;;5068297;28;20218;-78
2021/05/06 08:27:51;;;;;;;0.60;0.60;;;7.20;99.90;;;;;;5067913;28;20223;-78
2021/05/06 08:30:17;;;;;;;0.60;0.60;;;7.40;99.90;;;;;;5068858;28;20226;-78
2021/05/06 08:32:44;;;;;;;0.60;0.60;;;7.60;99.90;;;;;;5068410;28;20211;-78
2021/05/06 08:35:12;;;;;;;0.60;0.60;;;7.50;99.90;;;;;;5068394;28;20699;-78
2021/05/06 08:37:38;;;;;;;0.50;0.50;;;8.30;99.90;;;;;;5067939;28;20663;-78
2021/05/06 08:40:06;;;;;;;0.60;0.60;;;7.30;99.90;;;;;;5068659;28;20277;-79
2021/05/06 08:42:34;;;;;;;0.60;0.60;;;7.40;99.90;;;;;;5064047;28;20208;-79
2021/05/06 08:45:02;;;;;;;0.60;0.60;;;7.40;99.90;;;;;;5062610;28;20260;-78
2021/05/06 08:47:29;;;;;;;0.60;0.60;;;7.40;99.90;;;;;;5066066;28;20268;-79
2021/05/06 08:49:55;;;;;;;0.60;0.60;;;7.40;99.90;;;;;;5054357;28;20200;-83
2021/05/06 08:53:27;;;;;;;;;;;;;;;;;;;;;
2021/05/06 09:25:16;;;;;;;0.60;0.60;;;7.90;99.90;;;;;;4849742;29;20215;-87
2021/05/06 09:31:06;;;;;;;0.60;0.60;;;8.10;99.90;;;;;;4871506;29;20221;-86
2021/05/06 09:37:26;;;;;;;0.60;0.60;;;7.10;99.90;;;;;;4964303;28;20219;-87
2021/05/06 09:40:36;;;;;;;0.60;0.60;;;10.80;99.90;;;;;;4948448;28;20207;-87
2021/05/06 09:46:56;;;;;;;0.60;0.60;;;9.20;99.90;;;;;;5021722;28;20626;-88
2021/05/06 09:49:27;;;;;;;0.60;0.60;;;7.20;99.90;;;;;;5045459;28;20216;-86
2021/05/06 09:51:57;;;;;;;0.55;0.55;;;10.10;99.90;;;;;;5050240;28;20204;-87
2021/05/06 09:54:28;;;;;;;0.60;0.60;;;7.70;99.90;;;;;;5050890;28;20301;-88
2021/05/06 09:57:07;;;;;;;0.50;0.50;;;8.20;99.90;;;;;;5055062;28;20295;-87
2021/05/06 09:59:37;;;;;;;0.60;0.60;;;8.50;99.90;;;;;;5054952;28;20574;-87
2021/05/06 10:02:18;;;;;;;0.60;0.60;;;8.40;99.90;;;;;;5043808;28;20232;-88
2021/05/06 10:07:57;;;;;;;0.60;0.60;;;9.50;99.90;;;;;;5043618;28;20262;-85
2021/05/06 10:10:24;;;;;;;0.60;0.60;;;8.60;99.90;;;;;;5054224;28;20219;-87
2021/05/06 10:12:54;;;;;;;0.50;0.50;;;10.40;99.90;;;;;;5053866;28;20321;-87
2021/05/06 10:15:25;;;;;;;0.60;0.60;;;8.40;99.90;;;;;;5053231;28;20269;-88
2021/05/06 10:17:57;;;;;;;0.60;0.60;;;7.60;99.90;;;;;;5053345;28;20278;-88
2021/05/06 10:20:25;;;;;;;0.60;0.60;;;8.50;99.90;;;;;;5053489;28;20216;-87
2021/05/06 10:22:53;;;;;;;0.50;0.50;;;8.20;99.90;;;;;;5053940;28;20685;-87
2021/05/06 10:25:29;;;;;;;0.60;0.60;;;9.30;99.90;;;;;;5044948;28;20302;-87
2021/05/06 10:27:57;;;;;;;0.60;0.60;;;7.40;99.90;;;;;;5050650;28;20585;-87
2021/05/06 10:30:24;;;;;;;0.60;0.60;;;7.90;99.90;;;;;;5048112;28;20400;-87
2021/05/06 10:32:51;;;;;;;0.60;0.60;;;8.20;99.90;;;;;;5054401;28;20215;-87
2021/05/06 10:35:21;;;;;;;0.60;0.60;;;11.40;99.90;;;;;;5052922;28;20204;-87
2021/05/06 10:37:59;;;;;;;0.60;0.60;;;7.90;99.90;;;;;;5052230;28;20211;-87
2021/05/06 10:44:01;;;;;;;0.60;0.60;;;8.30;99.90;;;;;;5022930;28;20246;-87
2021/05/06 10:47:00;;;;;;;0.60;0.60;;;8.60;99.90;;;;;;5051503;28;20204;-86
2021/05/06 10:50:07;;;;;;;0.52;0.52;;;8.60;99.90;;;;;;5048173;28;20232;-86
2021/05/06 10:52:49;;;;;;;0.60;0.60;;;8.30;99.90;;;;;;5049073;28;20241;-87
2021/05/06 10:56:02;;;;;;;0.60;0.60;;;8.70;99.90;;;;;;5053580;28;20223;-87
2021/05/06 10:58:40;;;;;;;0.60;0.60;;;9.50;99.90;;;;;;5037678;28;20207;-86
2021/05/06 11:01:49;;;;;;;0.60;0.60;;;7.30;99.90;;;;;;5053474;28;20240;-86
2021/05/06 11:04:40;;;;;;;0.60;0.60;;;9.00;99.90;;;;;;5053838;28;20208;-87
2021/05/06 11:07:15;;;;;;;0.60;0.60;;;7.80;99.90;;;;;;5052449;28;20228;-87
2021/05/06 11:10:19;;;;;;;0.60;0.60;;;9.30;99.90;;;;;;5052871;28;20212;-87
2021/05/06 11:23:11;;;;;;;0.52;0.52;;;12.20;99.90;;;;;;4893544;29;20218;-86
2021/05/06 11:26:19;;;;;;;0.60;0.60;;;11.10;99.90;;;;;;4942857;28;20210;-87
2021/05/06 11:42:36;;;;;;;0.50;0.50;;;10.70;99.90;;;;;;4954633;28;20736;-88
2021/05/06 11:45:56;;;;;;;0.60;0.60;;;10.00;99.90;;;;;;5044477;28;20254;-88
2021/05/06 11:48:53;;;;;;;0.60;0.60;;;9.50;99.90;;;;;;5041046;28;20225;-86
2021/05/06 11:58:04;;;;;;;0.60;0.60;;;10.30;99.90;;;;;;5021725;28;20196;-87
2021/05/06 12:00:39;;;;;;;0.60;0.60;;;9.00;99.90;;;;;;5041503;28;20225;-87
2021/05/06 12:06:26;;;;;;;0.60;0.60;;;10.10;99.90;;;;;;4952013;28;20210;-85
2021/05/06 12:09:51;;;;;;;0.60;0.60;;;9.10;99.90;;;;;;5032523;28;20629;-88
2021/05/06 12:32:43;;;;;;;0.60;0.60;;;12.70;99.90;;;;;;5406532;23;20246;-80
2021/05/06 12:35:10;;;;;;;0.60;0.60;;;11.30;99.90;;;;;;5070388;28;20204;-82
2021/05/06 12:37:37;;;;;;;0.60;0.60;;;10.70;99.90;;;;;;5068810;28;20204;-82
2021/05/06 12:40:10;;;;;;;0.60;0.60;;;9.80;99.90;;;;;;5075678;28;20208;-85
2021/05/06 12:42:45;;;;;;;0.60;0.60;;;9.30;99.90;;;;;;5078305;28;20264;-85
2021/05/06 12:45:25;;;;;;;0.50;0.50;;;9.10;99.90;;;;;;5081569;28;20657;-81
2021/05/06 12:47:52;;;;;;;0.60;0.60;;;8.40;99.90;;;;;;5077491;28;20219;-78
2021/05/06 12:50:21;;;;;;;0.60;0.60;;;8.40;99.90;;;;;;5063360;28;20675;-85
2021/05/06 12:52:49;;;;;;;0.60;0.60;;;8.50;99.90;;;;;;5067839;28;20666;-82
2021/05/06 12:55:17;;;;;;;0.60;0.60;;;8.90;99.90;;;;;;5066214;28;20207;-85
2021/05/06 12:57:46;;;;;;;0.60;0.60;;;9.30;99.90;;;;;;5072058;28;20207;-86
2021/05/06 13:00:21;;;;;;;0.60;0.60;;;9.10;99.90;;;;;;5064294;28;20286;-80
2021/05/06 13:02:47;;;;;;;0.60;0.60;;;9.30;99.90;;;;;;5064078;28;20433;-80
2021/05/06 13:05:29;;;;;;;0.50;0.50;;;9.00;99.90;;;;;;5064409;28;20243;-79
2021/05/06 13:07:56;;;;;;;0.60;0.60;;;9.10;99.90;;;;;;5063676;28;20563;-80
2021/05/06 13:10:30;;;;;;;0.60;0.60;;;9.10;99.90;;;;;;5067962;28;20254;-80
2021/05/06 13:12:57;;;;;;;0.60;0.60;;;9.50;99.90;;;;;;5066788;28;20703;-80
2021/05/06 13:15:23;;;;;;;0.60;0.60;;;10.30;99.90;;;;;;5062252;28;20718;-79
2021/05/06 13:17:50;;;;;;;0.60;0.60;;;10.70;99.90;;;;;;5061826;28;20207;-79
2021/05/06 13:20:19;;;;;;;0.60;0.60;;;11.10;99.90;;;;;;5065650;28;20324;-81
2021/05/06 13:23:05;;;;;;;0.50;0.50;;;11.40;99.90;;;;;;5059013;28;20273;-85
2021/05/06 14:12:21;;;;;;;0.60;0.60;;;10.60;99.90;;;;;;5795881;22;20239;-85
2021/05/06 14:14:50;;;;;;;0.60;0.60;;;8.60;99.90;;;;;;5072828;28;20219;-81
2021/05/06 14:17:16;;;;;;;0.60;0.60;;;10.30;99.90;;;;;;5072260;28;20226;-81
2021/05/06 14:19:42;;;;;;;0.52;0.52;;;9.90;99.90;;;;;;5072257;28;20204;-81
2021/05/06 14:22:08;;;;;;;0.60;0.60;;;10.10;99.90;;;;;;5071902;28;20480;-80
2021/05/06 14:24:34;;;;;;;0.57;0.57;;;10.10;99.90;;;;;;5072509;28;20211;-80
2021/05/06 14:27:01;;;;;;;0.60;0.60;;;10.10;99.90;;;;;;5070691;28;20223;-80
2021/05/06 14:29:28;;;;;;;0.60;0.60;;;10.20;99.90;;;;;;5072688;28;20219;-85
2021/05/06 14:31:54;;;;;;;0.50;0.50;;;10.70;99.90;;;;;;5073195;28;20223;-81
2021/05/06 14:34:21;;;;;;;0.60;0.60;;;10.80;99.90;;;;;;5071622;28;20249;-81
2021/05/06 14:36:47;;;;;;;0.60;0.60;;;10.80;99.90;;;;;;5071780;28;20254;-81
2021/05/06 14:39:14;;;;;;;0.60;0.60;;;10.80;99.90;;;;;;5072404;28;20447;-82
2021/05/06 14:41:42;;;;;;;0.60;0.60;;;11.30;99.90;;;;;;5071910;28;20249;-78
2021/05/06 14:44:08;;;;;;;0.60;0.60;;;11.50;99.90;;;;;;5070499;28;20210;-78
2021/05/06 14:46:36;;;;;;;0.60;0.60;;;11.50;99.90;;;;;;5071512;28;20237;-78
2021/05/06 14:49:02;;;;;;;0.60;0.60;;;11.30;99.90;;;;;;5071298;28;20231;-79
2021/05/06 14:51:28;;;;;;;0.60;0.60;;;11.20;99.90;;;;;;5071812;28;20204;-78
2021/05/06 14:53:54;;;;;;;0.60;0.60;;;10.90;99.90;;;;;;5065572;28;20191;-78
2021/05/06 14:56:20;;;;;;;0.60;0.60;;;10.60;99.90;;;;;;5063185;28;20667;-78
2021/05/06 14:58:47;;;;;;;0.60;0.60;;;10.60;99.90;;;;;;5059311;28;20197;-78
2021/05/06 15:01:13;;;;;;;0.60;0.60;;;10.50;99.90;;;;;;5067788;28;20541;-78
2021/05/06 15:03:40;;;;;;;0.60;0.60;;;11.00;99.90;;;;;;5058215;28;20200;-78
2021/05/06 15:06:06;;;;;;;0.60;0.60;;;11.00;99.90;;;;;;5069728;28;20272;-79
2021/05/06 15:08:33;;;;;;;0.60;0.60;;;10.90;99.90;;;;;;5061915;28;20282;-78
2021/05/06 15:10:59;;;;;;;0.60;0.60;;;10.70;99.90;;;;;;5056322;28;20195;-78
2021/05/06 15:13:25;;;;;;;0.60;0.60;;;10.80;99.90;;;;;;5060139;28;20240;-79
2021/05/06 15:15:51;;;;;;;0.50;0.50;;;10.80;99.90;;;;;;5071131;28;20204;-78
2021/05/06 15:18:17;;;;;;;0.60;0.60;;;13.00;99.90;;;;;;5070954;28;20210;-78
2021/05/06 15:20:44;;;;;;;0.55;0.55;;;10.70;99.90;;;;;;5070735;28;20207;-78
2021/05/06 15:23:10;;;;;;;0.60;0.60;;;10.70;99.90;;;;;;5070898;28;20208;-78
2021/05/06 15:25:36;;;;;;;0.60;0.60;;;10.80;99.90;;;;;;5069441;28;20207;-78
2021/05/06 15:28:03;;;;;;;0.60;0.60;;;10.80;99.90;;;;;;5059273;28;20211;-78
2021/05/06 15:30:29;;;;;;;0.55;0.55;;;10.90;99.90;;;;;;5060442;28;20209;-79
2021/05/06 15:32:58;;;;;;;0.60;0.60;;;10.90;99.90;;;;;;5058276;28;20207;-78
2021/05/06 15:35:25;;;;;;;0.52;0.52;;;10.90;99.90;;;;;;5051989;28;20204;-79
2021/05/06 15:37:53;;;;;;;0.60;0.60;;;10.80;99.90;;;;;;5050226;28;20205;-78
2021/05/06 15:40:19;;;;;;;0.60;0.60;;;10.60;99.90;;;;;;5050742;28;20204;-78
2021/05/06 15:42:46;;;;;;;0.50;0.50;;;10.50;99.90;;;;;;5049645;28;20254;-78
2021/05/06 15:45:13;;;;;;;0.60;0.60;;;10.40;99.90;;;;;;5053406;28;20682;-78
2021/05/06 15:47:40;;;;;;;0.50;0.50;;;10.30;99.90;;;;;;5059031;28;20215;-78
2021/05/06 15:50:09;;;;;;;0.60;0.60;;;10.20;99.90;;;;;;5061520;28;20196;-78
2021/05/06 15:52:35;;;;;;;0.60;0.60;;;10.00;99.90;;;;;;5070298;28;20208;-77
2021/05/06 15:55:04;;;;;;;0.60;0.60;;;9.50;99.90;;;;;;5070045;28;20211;-78
2021/05/06 15:57:34;;;;;;;0.60;0.60;;;9.20;99.90;;;;;;5069209;28;20199;-78
2021/05/06 16:00:01;;;;;;;0.60;0.60;;;9.10;99.90;;;;;;5069955;28;20210;-78
2021/05/06 16:02:28;;;;;;;0.60;0.60;;;8.90;99.90;;;;;;5070199;28;20295;-78
2021/05/06 16:04:54;;;;;;;0.60;0.60;;;8.70;99.90;;;;;;5070247;28;20348;-78
2021/05/06 16:07:21;;;;;;;0.50;0.50;;;8.50;99.90;;;;;;5069681;28;20199;-78
2021/05/06 16:09:47;;;;;;;0.60;0.60;;;8.40;99.90;;;;;;5070372;28;20206;-78
2021/05/06 16:12:14;;;;;;;0.60;0.60;;;8.40;99.90;;;;;;5068960;28;20293;-78
2021/05/06 16:14:40;;;;;;;0.60;0.60;;;8.30;99.90;;;;;;5069845;28;20214;-78
2021/05/06 16:17:06;;;;;;;0.60;0.60;;;8.20;99.90;;;;;;5069710;28;20254;-77
2021/05/06 16:19:33;;;;;;;0.57;0.57;;;8.10;99.90;;;;;;5070163;28;20204;-78
2021/05/06 16:21:59;;;;;;;0.60;0.60;;;8.10;99.90;;;;;;5069590;28;20202;-78
2021/05/06 16:24:25;;;;;;;0.60;0.60;;;8.10;99.90;;;;;;5069764;28;20673;-78
2021/05/06 16:26:52;;;;;;;0.60;0.60;;;8.10;99.90;;;;;;5069222;28;20223;-78
2021/05/06 16:29:26;;;;;;;0.60;0.60;;;7.90;99.90;;;;;;5069691;28;20249;-78
2021/05/06 16:31:52;;;;;;;0.60;0.60;;;7.70;99.90;;;;;;5061868;28;20245;-78
2021/05/06 16:34:22;;;;;;;0.60;0.60;;;7.70;99.90;;;;;;5060045;28;20577;-78
2021/05/06 16:36:52;;;;;;;0.57;0.57;;;7.70;99.90;;;;;;5058254;28;20685;-78
2021/05/06 16:39:29;;;;;;;0.60;0.60;;;7.60;99.90;;;;;;5058288;28;20683;-78
2021/05/06 16:41:58;;;;;;;0.60;0.60;;;7.70;99.90;;;;;;5058430;28;20196;-78
2021/05/06 16:44:28;;;;;;;0.50;0.50;;;7.70;99.90;;;;;;5057915;28;20208;-78
2021/05/06 16:46:56;;;;;;;0.55;0.55;;;7.70;99.90;;;;;;5056082;28;20246;-79
2021/05/06 16:49:26;;;;;;;0.60;0.60;;;7.70;99.90;;;;;;5057401;28;20685;-79
2021/05/06 16:51:52;;;;;;;0.60;0.60;;;7.80;99.90;;;;;;5059060;28;20215;-83
2021/05/06 16:54:19;;;;;;;0.60;0.60;;;7.80;99.90;;;;;;5063932;28;20341;-78
2021/05/06 16:56:45;;;;;;;0.60;0.60;;;7.80;99.90;;;;;;5070806;28;20204;-77
2021/05/06 16:59:27;;;;;;;0.60;0.60;;;7.80;99.90;;;;;;5062788;28;20203;-77
2021/05/06 17:01:54;;;;;;;0.52;0.52;;;7.90;99.90;;;;;;5057563;28;20254;-77
2021/05/06 17:04:20;;;;;;;0.60;0.60;;;7.80;99.90;;;;;;5051430;28;20204;-77
2021/05/06 17:06:46;;;;;;;0.60;0.60;;;7.90;99.90;;;;;;5071414;28;20207;-77
2021/05/06 17:09:14;;;;;;;0.50;0.50;;;7.90;99.90;;;;;;5073245;28;20215;-77
2021/05/06 17:11:41;;;;;;;0.60;0.60;;;7.80;99.90;;;;;;5073059;28;20249;-77
2021/05/06 17:14:08;;;;;;;0.50;0.50;;;7.70;99.90;;;;;;5071068;28;20580;-77
2021/05/06 17:16:36;;;;;;;0.60;0.60;;;7.60;99.90;;;;;;5070984;28;20222;-77
2021/05/06 17:19:03;;;;;;;0.60;0.60;;;7.60;99.90;;;;;;5072488;28;20199;-77
2021/05/06 17:21:30;;;;;;;0.60;0.60;;;7.60;99.90;;;;;;5073457;28;20207;-77
2021/05/06 17:23:56;;;;;;;0.60;0.60;;;7.60;99.90;;;;;;5072612;28;20505;-77
2021/05/06 17:26:22;;;;;;;0.60;0.60;;;7.60;99.90;;;;;;5073129;28;20859;-77
2021/05/06 17:28:49;;;;;;;0.60;0.60;;;7.30;99.90;;;;;;5072268;28;20230;-77
2021/05/06 17:31:15;;;;;;;0.60;0.60;;;7.40;99.90;;;;;;5072747;28;20214;-77
2021/05/06 17:33:42;;;;;;;0.60;0.60;;;7.50;99.90;;;;;;5072613;28;20511;-77
2021/05/06 17:36:09;;;;;;;0.60;0.60;;;7.50;99.90;;;;;;5073146;28;20203;-77
2021/05/06 17:38:35;;;;;;;0.60;0.60;;;7.50;99.90;;;;;;5072532;28;20204;-77
2021/05/06 17:41:02;;;;;;;0.60;0.60;;;7.50;99.90;;;;;;5072444;28;20204;-77
2021/05/06 17:43:29;;;;;;;0.60;0.60;;;7.50;99.90;;;;;;5071847;28;20199;-77
2021/05/06 17:45:55;;;;;;;0.60;0.60;;;7.40;99.90;;;;;;5072738;28;20204;-77
2021/05/06 17:48:22;;;;;;;0.60;0.60;;;7.50;99.90;;;;;;5072236;28;20293;-77
2021/05/06 17:50:49;;;;;;;0.60;0.60;;;7.50;99.90;;;;;;5072516;28;20636;-77